sensor_id;sensor_type;location;lat;lon;timestamp;P1;durP1;ratioP1;P2;durP2;ratioP2
45326;SDS011;31062;49.678;24.560;2023-10-13T00:01:52;8.15;;;3.67;;
45326;SDS011;31062;49.678;24.560;2023-10-13T00:04:40;6.97;;;4.03;;
45326;SDS011;31062;49.678;24.560;2023-10-13T00:07:30;10.68;;;3.35;;
45326;SDS011;31062;49.678;24.560;2023-10-13T00:10:18;11.50;;;3.15;;
45326;SDS011;31062;49.678;24.560;2023-10-13T00:13:04;3.17;;;2.85;;
45326;SDS011;31062;49.678;24.560;2023-10-13T00:16:03;5.57;;;3.33;;
45326;SDS011;31062;49.678;24.560;2023-10-13T00:18:54;6.93;;;3.77;;
45326;SDS011;31062;49.678;24.560;2023-10-13T00:21:43;7.13;;;3.53;;
45326;SDS011;31062;49.678;24.560;2023-10-13T00:24:29;7.30;;;3.17;;
45326;SDS011;31062;49.678;24.560;2023-10-13T00:27:19;12.93;;;3.78;;
45326;SDS011;31062;49.678;24.560;2023-10-13T00:30:20;8.57;;;3.67;;
45326;SDS011;31062;49.678;24.560;2023-10-13T00:33:19;7.60;;;3.63;;
45326;SDS011;31062;49.678;24.560;2023-10-13T00:36:10;6.43;;;3.70;;
45326;SDS011;31062;49.678;24.560;2023-10-13T00:39:04;8.65;;;3.88;;
45326;SDS011;31062;49.678;24.560;2023-10-13T00:41:51;11.20;;;4.28;;
45326;SDS011;31062;49.678;24.560;2023-10-13T00:44:45;8.23;;;4.28;;
45326;SDS011;31062;49.678;24.560;2023-10-13T00:47:37;10.30;;;3.97;;
45326;SDS011;31062;49.678;24.560;2023-10-13T00:50:45;5.40;;;3.80;;
45326;SDS011;31062;49.678;24.560;2023-10-13T00:53:51;8.15;;;3.92;;
45326;SDS011;31062;49.678;24.560;2023-10-13T00:56:58;7.30;;;4.05;;
45326;SDS011;31062;49.678;24.560;2023-10-13T01:00:10;6.07;;;4.63;;
45326;SDS011;31062;49.678;24.560;2023-10-13T01:03:20;9.85;;;4.20;;
45326;SDS011;31062;49.678;24.560;2023-10-13T01:06:29;9.20;;;4.25;;
45326;SDS011;31062;49.678;24.560;2023-10-13T01:09:40;10.55;;;4.30;;
45326;SDS011;31062;49.678;24.560;2023-10-13T01:12:48;15.40;;;4.47;;
45326;SDS011;31062;49.678;24.560;2023-10-13T01:15:58;11.48;;;4.32;;
45326;SDS011;31062;49.678;24.560;2023-10-13T01:19:05;6.28;;;4.15;;
45326;SDS011;31062;49.678;24.560;2023-10-13T01:22:12;10.00;;;4.38;;
45326;SDS011;31062;49.678;24.560;2023-10-13T01:25:20;11.15;;;4.47;;
45326;SDS011;31062;49.678;24.560;2023-10-13T01:28:27;6.72;;;3.90;;
45326;SDS011;31062;49.678;24.560;2023-10-13T01:31:35;7.70;;;4.88;;
45326;SDS011;31062;49.678;24.560;2023-10-13T01:34:44;8.35;;;4.53;;
45326;SDS011;31062;49.678;24.560;2023-10-13T01:37:52;13.25;;;5.07;;
45326;SDS011;31062;49.678;24.560;2023-10-13T01:41:04;9.98;;;4.78;;
45326;SDS011;31062;49.678;24.560;2023-10-13T01:44:12;11.30;;;6.30;;
45326;SDS011;31062;49.678;24.560;2023-10-13T01:47:19;9.75;;;5.20;;
45326;SDS011;31062;49.678;24.560;2023-10-13T01:50:28;9.02;;;4.55;;
45326;SDS011;31062;49.678;24.560;2023-10-13T01:53:40;5.55;;;4.78;;
45326;SDS011;31062;49.678;24.560;2023-10-13T01:56:48;12.95;;;4.63;;
45326;SDS011;31062;49.678;24.560;2023-10-13T01:59:54;9.60;;;5.18;;
45326;SDS011;31062;49.678;24.560;2023-10-13T02:03:06;18.65;;;5.57;;
45326;SDS011;31062;49.678;24.560;2023-10-13T02:06:13;11.30;;;4.85;;
45326;SDS011;31062;49.678;24.560;2023-10-13T02:09:22;13.75;;;5.25;;
45326;SDS011;31062;49.678;24.560;2023-10-13T02:12:36;8.93;;;5.00;;
45326;SDS011;31062;49.678;24.560;2023-10-13T02:15:45;9.82;;;5.45;;
45326;SDS011;31062;49.678;24.560;2023-10-13T02:18:51;7.60;;;5.13;;
45326;SDS011;31062;49.678;24.560;2023-10-13T02:21:57;8.30;;;5.32;;
45326;SDS011;31062;49.678;24.560;2023-10-13T02:25:08;7.27;;;4.97;;
45326;SDS011;31062;49.678;24.560;2023-10-13T02:28:16;8.57;;;5.00;;
45326;SDS011;31062;49.678;24.560;2023-10-13T02:31:23;12.40;;;5.50;;
45326;SDS011;31062;49.678;24.560;2023-10-13T02:34:32;10.95;;;5.57;;
45326;SDS011;31062;49.678;24.560;2023-10-13T02:37:39;11.55;;;5.15;;
45326;SDS011;31062;49.678;24.560;2023-10-13T02:40:45;9.27;;;5.20;;
45326;SDS011;31062;49.678;24.560;2023-10-13T02:43:55;11.18;;;5.85;;
45326;SDS011;31062;49.678;24.560;2023-10-13T02:47:03;12.40;;;5.78;;
45326;SDS011;31062;49.678;24.560;2023-10-13T02:50:12;8.35;;;5.35;;
45326;SDS011;31062;49.678;24.560;2023-10-13T02:53:19;13.10;;;6.05;;
45326;SDS011;31062;49.678;24.560;2023-10-13T02:56:26;9.75;;;6.55;;
45326;SDS011;31062;49.678;24.560;2023-10-13T02:59:35;13.60;;;7.45;;
45326;SDS011;31062;49.678;24.560;2023-10-13T03:02:48;7.63;;;5.10;;
45326;SDS011;31062;49.678;24.560;2023-10-13T03:05:54;8.88;;;5.88;;
45326;SDS011;31062;49.678;24.560;2023-10-13T03:09:08;11.82;;;6.13;;
45326;SDS011;31062;49.678;24.560;2023-10-13T03:12:22;10.88;;;5.38;;
45326;SDS011;31062;49.678;24.560;2023-10-13T03:15:31;9.25;;;6.05;;
45326;SDS011;31062;49.678;24.560;2023-10-13T03:18:38;9.25;;;5.38;;
45326;SDS011;31062;49.678;24.560;2023-10-13T03:21:47;7.32;;;5.70;;
45326;SDS011;31062;49.678;24.560;2023-10-13T03:25:03;9.63;;;5.78;;
45326;SDS011;31062;49.678;24.560;2023-10-13T03:28:12;8.75;;;5.72;;
45326;SDS011;31062;49.678;24.560;2023-10-13T03:31:19;9.88;;;5.40;;
45326;SDS011;31062;49.678;24.560;2023-10-13T03:34:25;9.98;;;6.82;;
45326;SDS011;31062;49.678;24.560;2023-10-13T03:37:32;9.13;;;5.60;;
45326;SDS011;31062;49.678;24.560;2023-10-13T03:40:25;25.73;;;8.65;;
45326;SDS011;31062;49.678;24.560;2023-10-13T03:43:14;10.63;;;6.43;;
45326;SDS011;31062;49.678;24.560;2023-10-13T03:46:09;12.02;;;6.90;;
45326;SDS011;31062;49.678;24.560;2023-10-13T03:48:56;16.40;;;6.90;;
45326;SDS011;31062;49.678;24.560;2023-10-13T03:51:48;9.50;;;6.80;;
45326;SDS011;31062;49.678;24.560;2023-10-13T03:54:33;11.73;;;6.28;;
45326;SDS011;31062;49.678;24.560;2023-10-13T03:57:22;10.07;;;6.28;;
45326;SDS011;31062;49.678;24.560;2023-10-13T04:00:13;13.25;;;6.00;;
45326;SDS011;31062;49.678;24.560;2023-10-13T04:03:08;9.73;;;5.85;;
45326;SDS011;31062;49.678;24.560;2023-10-13T04:05:57;12.85;;;6.47;;
45326;SDS011;31062;49.678;24.560;2023-10-13T04:08:51;12.75;;;7.78;;
45326;SDS011;31062;49.678;24.560;2023-10-13T04:12:01;7.50;;;6.32;;
45326;SDS011;31062;49.678;24.560;2023-10-13T04:14:50;8.55;;;6.05;;
45326;SDS011;31062;49.678;24.560;2023-10-13T04:17:51;9.13;;;6.10;;
45326;SDS011;31062;49.678;24.560;2023-10-13T04:20:38;10.00;;;6.53;;
45326;SDS011;31062;49.678;24.560;2023-10-13T04:23:24;10.57;;;6.22;;
45326;SDS011;31062;49.678;24.560;2023-10-13T04:26:11;10.40;;;6.07;;
45326;SDS011;31062;49.678;24.560;2023-10-13T04:29:07;8.27;;;5.90;;
45326;SDS011;31062;49.678;24.560;2023-10-13T04:32:14;9.63;;;5.32;;
45326;SDS011;31062;49.678;24.560;2023-10-13T04:35:16;13.32;;;5.85;;
45326;SDS011;31062;49.678;24.560;2023-10-13T04:38:02;10.10;;;6.10;;
45326;SDS011;31062;49.678;24.560;2023-10-13T04:40:57;14.63;;;6.30;;
45326;SDS011;31062;49.678;24.560;2023-10-13T04:43:48;12.13;;;6.68;;
45326;SDS011;31062;49.678;24.560;2023-10-13T04:46:50;10.80;;;6.63;;
45326;SDS011;31062;49.678;24.560;2023-10-13T04:49:39;9.77;;;7.13;;
45326;SDS011;31062;49.678;24.560;2023-10-13T04:52:31;19.75;;;10.25;;
45326;SDS011;31062;49.678;24.560;2023-10-13T04:55:37;22.95;;;11.45;;
45326;SDS011;31062;49.678;24.560;2023-10-13T04:58:49;18.20;;;9.80;;
45326;SDS011;31062;49.678;24.560;2023-10-13T05:01:54;14.55;;;8.38;;
45326;SDS011;31062;49.678;24.560;2023-10-13T05:04:43;10.30;;;7.40;;
45326;SDS011;31062;49.678;24.560;2023-10-13T05:07:48;12.35;;;8.73;;
45326;SDS011;31062;49.678;24.560;2023-10-13T05:10:54;15.10;;;9.10;;
45326;SDS011;31062;49.678;24.560;2023-10-13T05:13:59;20.27;;;6.57;;
45326;SDS011;31062;49.678;24.560;2023-10-13T05:17:03;11.93;;;6.85;;
45326;SDS011;31062;49.678;24.560;2023-10-13T05:20:09;9.23;;;6.32;;
45326;SDS011;31062;49.678;24.560;2023-10-13T05:23:14;11.02;;;6.50;;
45326;SDS011;31062;49.678;24.560;2023-10-13T05:26:19;14.75;;;7.30;;
45326;SDS011;31062;49.678;24.560;2023-10-13T05:29:24;10.93;;;6.70;;
45326;SDS011;31062;49.678;24.560;2023-10-13T05:32:30;10.68;;;7.20;;
45326;SDS011;31062;49.678;24.560;2023-10-13T05:35:35;15.57;;;8.40;;
45326;SDS011;31062;49.678;24.560;2023-10-13T05:38:40;13.90;;;8.20;;
45326;SDS011;31062;49.678;24.560;2023-10-13T05:41:45;17.60;;;9.30;;
45326;SDS011;31062;49.678;24.560;2023-10-13T05:44:50;11.68;;;8.15;;
45326;SDS011;31062;49.678;24.560;2023-10-13T05:48:03;9.35;;;7.20;;
45326;SDS011;31062;49.678;24.560;2023-10-13T05:51:19;12.30;;;8.15;;
45326;SDS011;31062;49.678;24.560;2023-10-13T05:54:25;14.85;;;7.15;;
45326;SDS011;31062;49.678;24.560;2023-10-13T05:57:29;12.57;;;7.30;;
45326;SDS011;31062;49.678;24.560;2023-10-13T06:00:37;13.43;;;7.20;;
45326;SDS011;31062;49.678;24.560;2023-10-13T06:03:42;12.20;;;6.70;;
45326;SDS011;31062;49.678;24.560;2023-10-13T06:06:49;12.98;;;6.10;;
45326;SDS011;31062;49.678;24.560;2023-10-13T06:09:54;16.30;;;6.97;;
45326;SDS011;31062;49.678;24.560;2023-10-13T06:13:01;17.77;;;7.30;;
45326;SDS011;31062;49.678;24.560;2023-10-13T06:16:07;11.27;;;6.85;;
45326;SDS011;31062;49.678;24.560;2023-10-13T06:19:22;17.73;;;7.13;;
45326;SDS011;31062;49.678;24.560;2023-10-13T06:22:26;10.68;;;7.43;;
45326;SDS011;31062;49.678;24.560;2023-10-13T06:25:50;11.07;;;6.85;;
45326;SDS011;31062;49.678;24.560;2023-10-13T06:28:58;13.60;;;8.43;;
45326;SDS011;31062;49.678;24.560;2023-10-13T06:32:06;11.05;;;7.78;;
45326;SDS011;31062;49.678;24.560;2023-10-13T06:38:24;11.13;;;7.47;;
45326;SDS011;31062;49.678;24.560;2023-10-13T06:41:30;14.15;;;7.82;;
45326;SDS011;31062;49.678;24.560;2023-10-13T06:44:25;14.80;;;7.97;;
45326;SDS011;31062;49.678;24.560;2023-10-13T06:47:13;14.00;;;8.68;;
45326;SDS011;31062;49.678;24.560;2023-10-13T06:50:19;14.65;;;8.45;;
45326;SDS011;31062;49.678;24.560;2023-10-13T06:53:25;21.63;;;10.18;;
45326;SDS011;31062;49.678;24.560;2023-10-13T06:56:31;15.75;;;8.77;;
45326;SDS011;31062;49.678;24.560;2023-10-13T06:59:37;13.77;;;9.20;;
45326;SDS011;31062;49.678;24.560;2023-10-13T07:02:43;10.73;;;8.60;;
45326;SDS011;31062;49.678;24.560;2023-10-13T07:05:50;14.02;;;8.68;;
45326;SDS011;31062;49.678;24.560;2023-10-13T07:08:56;16.65;;;8.40;;
45326;SDS011;31062;49.678;24.560;2023-10-13T07:12:03;12.18;;;8.48;;
45326;SDS011;31062;49.678;24.560;2023-10-13T07:15:12;13.77;;;7.40;;
45326;SDS011;31062;49.678;24.560;2023-10-13T07:18:04;18.77;;;8.20;;
45326;SDS011;31062;49.678;24.560;2023-10-13T07:21:10;12.80;;;8.60;;
45326;SDS011;31062;49.678;24.560;2023-10-13T07:24:16;18.70;;;9.15;;
45326;SDS011;31062;49.678;24.560;2023-10-13T07:27:22;12.20;;;8.43;;
45326;SDS011;31062;49.678;24.560;2023-10-13T07:30:28;14.05;;;8.60;;
45326;SDS011;31062;49.678;24.560;2023-10-13T07:33:34;13.05;;;8.23;;
45326;SDS011;31062;49.678;24.560;2023-10-13T07:36:40;13.68;;;7.82;;
45326;SDS011;31062;49.678;24.560;2023-10-13T07:39:45;15.63;;;8.52;;
45326;SDS011;31062;49.678;24.560;2023-10-13T07:42:51;18.02;;;9.32;;
45326;SDS011;31062;49.678;24.560;2023-10-13T07:45:57;18.10;;;9.23;;
45326;SDS011;31062;49.678;24.560;2023-10-13T07:49:03;21.55;;;10.02;;
45326;SDS011;31062;49.678;24.560;2023-10-13T07:52:14;18.10;;;10.65;;
45326;SDS011;31062;49.678;24.560;2023-10-13T07:55:06;16.95;;;8.70;;
45326;SDS011;31062;49.678;24.560;2023-10-13T08:01:24;16.38;;;8.43;;
45326;SDS011;31062;49.678;24.560;2023-10-13T08:04:29;11.40;;;7.85;;
45326;SDS011;31062;49.678;24.560;2023-10-13T08:07:36;17.05;;;9.27;;
45326;SDS011;31062;49.678;24.560;2023-10-13T08:10:42;15.18;;;8.10;;
45326;SDS011;31062;49.678;24.560;2023-10-13T08:13:51;13.88;;;7.45;;
45326;SDS011;31062;49.678;24.560;2023-10-13T08:17:23;12.07;;;7.10;;
45326;SDS011;31062;49.678;24.560;2023-10-13T08:20:28;8.60;;;6.95;;
45326;SDS011;31062;49.678;24.560;2023-10-13T08:23:34;9.63;;;6.80;;
45326;SDS011;31062;49.678;24.560;2023-10-13T08:26:39;8.48;;;5.78;;
45326;SDS011;31062;49.678;24.560;2023-10-13T08:29:46;7.95;;;5.82;;
45326;SDS011;31062;49.678;24.560;2023-10-13T08:32:42;8.02;;;4.88;;
45326;SDS011;31062;49.678;24.560;2023-10-13T08:35:50;10.23;;;5.40;;
45326;SDS011;31062;49.678;24.560;2023-10-13T08:39:00;10.30;;;6.18;;
45326;SDS011;31062;49.678;24.560;2023-10-13T08:42:05;9.60;;;5.28;;
45326;SDS011;31062;49.678;24.560;2023-10-13T08:45:17;8.73;;;6.43;;
45326;SDS011;31062;49.678;24.560;2023-10-13T08:48:25;9.25;;;6.30;;
45326;SDS011;31062;49.678;24.560;2023-10-13T08:51:33;13.68;;;6.25;;
45326;SDS011;31062;49.678;24.560;2023-10-13T08:54:49;7.40;;;6.03;;
45326;SDS011;31062;49.678;24.560;2023-10-13T08:57:56;9.77;;;5.95;;
45326;SDS011;31062;49.678;24.560;2023-10-13T09:01:02;7.18;;;6.18;;
45326;SDS011;31062;49.678;24.560;2023-10-13T09:04:20;9.77;;;5.75;;
45326;SDS011;31062;49.678;24.560;2023-10-13T09:07:26;7.85;;;4.93;;
45326;SDS011;31062;49.678;24.560;2023-10-13T09:10:47;10.57;;;5.47;;
45326;SDS011;31062;49.678;24.560;2023-10-13T09:13:53;8.38;;;4.93;;
45326;SDS011;31062;49.678;24.560;2023-10-13T09:17:03;9.73;;;4.22;;
45326;SDS011;31062;49.678;24.560;2023-10-13T09:20:13;5.03;;;4.47;;
45326;SDS011;31062;49.678;24.560;2023-10-13T09:23:45;5.32;;;4.10;;
45326;SDS011;31062;49.678;24.560;2023-10-13T09:26:52;7.47;;;3.80;;
45326;SDS011;31062;49.678;24.560;2023-10-13T09:30:02;5.95;;;3.42;;
45326;SDS011;31062;49.678;24.560;2023-10-13T09:33:24;7.50;;;4.28;;
45326;SDS011;31062;49.678;24.560;2023-10-13T09:36:42;7.43;;;6.20;;
45326;SDS011;31062;49.678;24.560;2023-10-13T09:39:48;9.25;;;3.67;;
45326;SDS011;31062;49.678;24.560;2023-10-13T09:42:57;4.80;;;3.25;;
45326;SDS011;31062;49.678;24.560;2023-10-13T09:49:13;8.77;;;3.88;;
45326;SDS011;31062;49.678;24.560;2023-10-13T09:52:20;5.75;;;3.78;;
45326;SDS011;31062;49.678;24.560;2023-10-13T09:55:11;3.45;;;3.08;;
45326;SDS011;31062;49.678;24.560;2023-10-13T09:58:03;7.70;;;3.90;;
45326;SDS011;31062;49.678;24.560;2023-10-13T10:01:16;5.68;;;3.92;;
45326;SDS011;31062;49.678;24.560;2023-10-13T10:04:28;4.72;;;3.72;;
45326;SDS011;31062;49.678;24.560;2023-10-13T10:07:35;5.70;;;3.70;;
45326;SDS011;31062;49.678;24.560;2023-10-13T10:10:51;7.18;;;4.30;;
45326;SDS011;31062;49.678;24.560;2023-10-13T10:17:49;3.80;;;2.92;;
45326;SDS011;31062;49.678;24.560;2023-10-13T10:21:04;4.07;;;3.10;;
45326;SDS011;31062;49.678;24.560;2023-10-13T10:24:14;7.63;;;2.88;;
45326;SDS011;31062;49.678;24.560;2023-10-13T10:27:39;6.57;;;2.60;;
45326;SDS011;31062;49.678;24.560;2023-10-13T10:30:48;4.68;;;2.85;;
45326;SDS011;31062;49.678;24.560;2023-10-13T10:33:55;5.13;;;2.78;;
45326;SDS011;31062;49.678;24.560;2023-10-13T10:37:02;4.88;;;2.58;;
45326;SDS011;31062;49.678;24.560;2023-10-13T10:40:09;6.35;;;3.00;;
45326;SDS011;31062;49.678;24.560;2023-10-13T10:43:15;2.70;;;2.25;;
45326;SDS011;31062;49.678;24.560;2023-10-13T10:46:18;5.80;;;3.00;;
45326;SDS011;31062;49.678;24.560;2023-10-13T10:49:12;4.93;;;2.60;;
45326;SDS011;31062;49.678;24.560;2023-10-13T10:52:18;7.28;;;2.80;;
45326;SDS011;31062;49.678;24.560;2023-10-13T10:55:04;4.38;;;2.33;;
45326;SDS011;31062;49.678;24.560;2023-10-13T10:58:13;3.45;;;2.42;;
45326;SDS011;31062;49.678;24.560;2023-10-13T11:01:18;4.35;;;2.35;;
45326;SDS011;31062;49.678;24.560;2023-10-13T11:04:24;7.00;;;3.00;;
45326;SDS011;31062;49.678;24.560;2023-10-13T11:07:29;4.25;;;2.65;;
45326;SDS011;31062;49.678;24.560;2023-10-13T11:10:35;4.63;;;2.53;;
45326;SDS011;31062;49.678;24.560;2023-10-13T11:13:41;8.57;;;2.58;;
45326;SDS011;31062;49.678;24.560;2023-10-13T11:16:47;8.50;;;3.35;;
45326;SDS011;31062;49.678;24.560;2023-10-13T11:19:56;5.75;;;3.00;;
45326;SDS011;31062;49.678;24.560;2023-10-13T11:23:10;4.75;;;3.00;;
45326;SDS011;31062;49.678;24.560;2023-10-13T11:26:16;9.80;;;3.58;;
45326;SDS011;31062;49.678;24.560;2023-10-13T11:29:31;3.72;;;2.60;;
45326;SDS011;31062;49.678;24.560;2023-10-13T11:32:37;3.08;;;2.55;;
45326;SDS011;31062;49.678;24.560;2023-10-13T11:35:43;4.45;;;2.60;;
45326;SDS011;31062;49.678;24.560;2023-10-13T11:38:39;7.25;;;3.40;;
45326;SDS011;31062;49.678;24.560;2023-10-13T11:41:28;3.90;;;3.35;;
45326;SDS011;31062;49.678;24.560;2023-10-13T11:44:33;3.65;;;3.00;;
45326;SDS011;31062;49.678;24.560;2023-10-13T11:47:39;2.67;;;2.47;;
45326;SDS011;31062;49.678;24.560;2023-10-13T11:53:16;4.00;;;2.75;;
45326;SDS011;31062;49.678;24.560;2023-10-13T11:56:03;3.35;;;2.45;;
45326;SDS011;31062;49.678;24.560;2023-10-13T11:58:55;5.00;;;2.75;;
45326;SDS011;31062;49.678;24.560;2023-10-13T12:01:47;4.25;;;3.20;;
45326;SDS011;31062;49.678;24.560;2023-10-13T12:04:52;6.47;;;2.72;;
45326;SDS011;31062;49.678;24.560;2023-10-13T12:07:43;3.83;;;2.58;;
45326;SDS011;31062;49.678;24.560;2023-10-13T12:10:33;4.50;;;4.03;;
45326;SDS011;31062;49.678;24.560;2023-10-13T12:13:20;8.32;;;4.07;;
45326;SDS011;31062;49.678;24.560;2023-10-13T12:16:06;7.05;;;3.25;;
45326;SDS011;31062;49.678;24.560;2023-10-13T12:18:55;3.33;;;2.78;;
45326;SDS011;31062;49.678;24.560;2023-10-13T12:21:40;4.40;;;2.67;;
45326;SDS011;31062;49.678;24.560;2023-10-13T12:24:29;4.93;;;3.25;;
45326;SDS011;31062;49.678;24.560;2023-10-13T12:27:24;3.75;;;2.97;;
45326;SDS011;31062;49.678;24.560;2023-10-13T12:30:21;6.05;;;3.08;;
45326;SDS011;31062;49.678;24.560;2023-10-13T12:33:34;5.45;;;3.22;;
45326;SDS011;31062;49.678;24.560;2023-10-13T12:39:16;5.22;;;2.67;;
45326;SDS011;31062;49.678;24.560;2023-10-13T12:42:21;6.10;;;2.50;;
45326;SDS011;31062;49.678;24.560;2023-10-13T12:45:25;2.65;;;2.25;;
45326;SDS011;31062;49.678;24.560;2023-10-13T12:48:32;8.85;;;2.33;;
45326;SDS011;31062;49.678;24.560;2023-10-13T12:51:37;3.13;;;2.35;;
45326;SDS011;31062;49.678;24.560;2023-10-13T12:54:23;5.25;;;2.38;;
45326;SDS011;31062;49.678;24.560;2023-10-13T12:57:09;5.88;;;2.90;;
45326;SDS011;31062;49.678;24.560;2023-10-13T12:59:58;4.88;;;3.03;;
45326;SDS011;31062;49.678;24.560;2023-10-13T13:02:44;3.70;;;3.05;;
45326;SDS011;31062;49.678;24.560;2023-10-13T13:05:30;8.18;;;2.53;;
45326;SDS011;31062;49.678;24.560;2023-10-13T13:08:16;2.53;;;2.10;;
45326;SDS011;31062;49.678;24.560;2023-10-13T13:11:10;8.25;;;2.38;;
45326;SDS011;31062;49.678;24.560;2023-10-13T13:13:56;14.85;;;3.85;;
45326;SDS011;31062;49.678;24.560;2023-10-13T13:16:42;6.38;;;2.15;;
45326;SDS011;31062;49.678;24.560;2023-10-13T13:19:34;9.53;;;3.30;;
45326;SDS011;31062;49.678;24.560;2023-10-13T13:22:23;5.70;;;2.42;;
45326;SDS011;31062;49.678;24.560;2023-10-13T13:25:10;4.32;;;2.53;;
45326;SDS011;31062;49.678;24.560;2023-10-13T13:27:57;9.27;;;2.83;;
45326;SDS011;31062;49.678;24.560;2023-10-13T13:30:43;5.88;;;2.33;;
45326;SDS011;31062;49.678;24.560;2023-10-13T13:33:30;3.58;;;2.47;;
45326;SDS011;31062;49.678;24.560;2023-10-13T13:36:20;5.97;;;2.90;;
45326;SDS011;31062;49.678;24.560;2023-10-13T13:39:08;3.80;;;2.60;;
45326;SDS011;31062;49.678;24.560;2023-10-13T13:41:54;3.58;;;2.53;;
45326;SDS011;31062;49.678;24.560;2023-10-13T13:44:45;4.13;;;2.83;;
45326;SDS011;31062;49.678;24.560;2023-10-13T13:50:23;5.57;;;2.67;;
45326;SDS011;31062;49.678;24.560;2023-10-13T13:53:14;4.88;;;2.70;;
45326;SDS011;31062;49.678;24.560;2023-10-13T13:56:06;8.02;;;3.10;;
45326;SDS011;31062;49.678;24.560;2023-10-13T13:58:52;6.32;;;2.70;;
45326;SDS011;31062;49.678;24.560;2023-10-13T14:01:40;5.38;;;3.40;;
45326;SDS011;31062;49.678;24.560;2023-10-13T14:04:29;10.38;;;2.72;;
45326;SDS011;31062;49.678;24.560;2023-10-13T14:07:18;9.02;;;2.65;;
45326;SDS011;31062;49.678;24.560;2023-10-13T14:10:12;6.55;;;2.75;;
45326;SDS011;31062;49.678;24.560;2023-10-13T14:13:04;4.43;;;2.40;;
45326;SDS011;31062;49.678;24.560;2023-10-13T14:16:01;4.03;;;2.55;;
45326;SDS011;31062;49.678;24.560;2023-10-13T14:18:48;5.68;;;2.40;;
45326;SDS011;31062;49.678;24.560;2023-10-13T14:21:34;6.80;;;2.30;;
45326;SDS011;31062;49.678;24.560;2023-10-13T14:24:24;4.43;;;2.70;;
45326;SDS011;31062;49.678;24.560;2023-10-13T14:27:30;9.00;;;3.15;;
45326;SDS011;31062;49.678;24.560;2023-10-13T14:30:26;5.38;;;2.78;;
45326;SDS011;31062;49.678;24.560;2023-10-13T14:33:24;6.03;;;3.08;;
45326;SDS011;31062;49.678;24.560;2023-10-13T14:36:12;5.97;;;3.00;;
45326;SDS011;31062;49.678;24.560;2023-10-13T14:39:02;5.90;;;3.40;;
45326;SDS011;31062;49.678;24.560;2023-10-13T14:41:56;7.40;;;3.38;;
45326;SDS011;31062;49.678;24.560;2023-10-13T14:44:41;5.63;;;3.08;;
45326;SDS011;31062;49.678;24.560;2023-10-13T14:47:28;8.63;;;4.60;;
45326;SDS011;31062;49.678;24.560;2023-10-13T14:50:14;6.07;;;3.70;;
45326;SDS011;31062;49.678;24.560;2023-10-13T14:53:06;6.78;;;3.70;;
45326;SDS011;31062;49.678;24.560;2023-10-13T14:55:52;6.57;;;4.25;;
45326;SDS011;31062;49.678;24.560;2023-10-13T14:58:40;9.43;;;4.93;;
45326;SDS011;31062;49.678;24.560;2023-10-13T15:01:29;7.78;;;4.65;;
45326;SDS011;31062;49.678;24.560;2023-10-13T15:04:15;10.85;;;5.25;;
45326;SDS011;31062;49.678;24.560;2023-10-13T15:07:02;7.68;;;4.82;;
45326;SDS011;31062;49.678;24.560;2023-10-13T15:09:47;13.25;;;4.38;;
45326;SDS011;31062;49.678;24.560;2023-10-13T15:12:35;11.55;;;4.80;;
45326;SDS011;31062;49.678;24.560;2023-10-13T15:15:20;11.55;;;6.47;;
45326;SDS011;31062;49.678;24.560;2023-10-13T15:18:06;29.08;;;10.00;;
45326;SDS011;31062;49.678;24.560;2023-10-13T15:20:52;31.83;;;13.50;;
45326;SDS011;31062;49.678;24.560;2023-10-13T15:23:38;83.78;;;31.60;;
45326;SDS011;31062;49.678;24.560;2023-10-13T15:26:30;174.93;;;61.92;;
45326;SDS011;31062;49.678;24.560;2023-10-13T15:29:22;172.60;;;60.10;;
45326;SDS011;31062;49.678;24.560;2023-10-13T15:32:12;181.65;;;54.78;;
45326;SDS011;31062;49.678;24.560;2023-10-13T15:35:01;138.30;;;46.13;;
45326;SDS011;31062;49.678;24.560;2023-10-13T15:37:47;132.25;;;42.28;;
45326;SDS011;31062;49.678;24.560;2023-10-13T15:40:41;140.35;;;40.05;;
45326;SDS011;31062;49.678;24.560;2023-10-13T15:43:28;90.78;;;30.15;;
45326;SDS011;31062;49.678;24.560;2023-10-13T15:46:16;88.50;;;28.38;;
45326;SDS011;31062;49.678;24.560;2023-10-13T15:49:23;70.95;;;24.73;;
45326;SDS011;31062;49.678;24.560;2023-10-13T15:52:10;63.22;;;21.75;;
45326;SDS011;31062;49.678;24.560;2023-10-13T15:54:55;68.22;;;21.00;;
45326;SDS011;31062;49.678;24.560;2023-10-13T15:57:41;64.75;;;20.50;;
45326;SDS011;31062;49.678;24.560;2023-10-13T16:00:33;54.63;;;18.83;;
45326;SDS011;31062;49.678;24.560;2023-10-13T16:03:29;59.80;;;20.77;;
45326;SDS011;31062;49.678;24.560;2023-10-13T16:06:15;61.15;;;20.25;;
45326;SDS011;31062;49.678;24.560;2023-10-13T16:09:21;57.10;;;19.33;;
45326;SDS011;31062;49.678;24.560;2023-10-13T16:12:10;51.50;;;20.65;;
45326;SDS011;31062;49.678;24.560;2023-10-13T16:14:57;65.38;;;22.83;;
45326;SDS011;31062;49.678;24.560;2023-10-13T16:17:46;63.67;;;22.33;;
45326;SDS011;31062;49.678;24.560;2023-10-13T16:20:32;61.10;;;23.13;;
45326;SDS011;31062;49.678;24.560;2023-10-13T16:23:18;47.15;;;21.08;;
45326;SDS011;31062;49.678;24.560;2023-10-13T16:26:05;51.25;;;18.08;;
45326;SDS011;31062;49.678;24.560;2023-10-13T16:29:12;35.25;;;15.95;;
45326;SDS011;31062;49.678;24.560;2023-10-13T16:31:59;35.35;;;15.00;;
45326;SDS011;31062;49.678;24.560;2023-10-13T16:34:46;36.95;;;13.93;;
45326;SDS011;31062;49.678;24.560;2023-10-13T16:37:51;25.20;;;11.48;;
45326;SDS011;31062;49.678;24.560;2023-10-13T16:40:38;24.35;;;11.13;;
45326;SDS011;31062;49.678;24.560;2023-10-13T16:43:24;29.70;;;12.38;;
45326;SDS011;31062;49.678;24.560;2023-10-13T16:46:13;24.80;;;11.80;;
45326;SDS011;31062;49.678;24.560;2023-10-13T16:49:01;16.73;;;10.25;;
45326;SDS011;31062;49.678;24.560;2023-10-13T16:51:47;18.85;;;9.55;;
45326;SDS011;31062;49.678;24.560;2023-10-13T16:54:52;18.25;;;9.90;;
45326;SDS011;31062;49.678;24.560;2023-10-13T16:57:38;19.58;;;9.05;;
45326;SDS011;31062;49.678;24.560;2023-10-13T17:00:25;23.15;;;9.60;;
45326;SDS011;31062;49.678;24.560;2023-10-13T17:03:15;20.55;;;9.57;;
45326;SDS011;31062;49.678;24.560;2023-10-13T17:06:01;25.27;;;14.00;;
45326;SDS011;31062;49.678;24.560;2023-10-13T17:08:47;41.88;;;17.92;;
45326;SDS011;31062;49.678;24.560;2023-10-13T17:11:33;41.22;;;18.23;;
45326;SDS011;31062;49.678;24.560;2023-10-13T17:14:21;44.53;;;18.73;;
45326;SDS011;31062;49.678;24.560;2023-10-13T17:17:07;32.28;;;15.13;;
45326;SDS011;31062;49.678;24.560;2023-10-13T17:20:14;23.70;;;12.05;;
45326;SDS011;31062;49.678;24.560;2023-10-13T17:23:01;30.42;;;12.82;;
45326;SDS011;31062;49.678;24.560;2023-10-13T17:25:47;26.08;;;13.55;;
45326;SDS011;31062;49.678;24.560;2023-10-13T17:28:35;20.63;;;14.10;;
45326;SDS011;31062;49.678;24.560;2023-10-13T17:31:22;19.80;;;12.07;;
45326;SDS011;31062;49.678;24.560;2023-10-13T17:34:09;16.95;;;10.88;;
45326;SDS011;31062;49.678;24.560;2023-10-13T17:36:57;26.15;;;10.73;;
45326;SDS011;31062;49.678;24.560;2023-10-13T17:39:44;17.48;;;10.82;;
45326;SDS011;31062;49.678;24.560;2023-10-13T17:42:31;18.27;;;9.57;;
45326;SDS011;31062;49.678;24.560;2023-10-13T17:45:37;18.60;;;10.57;;
45326;SDS011;31062;49.678;24.560;2023-10-13T17:48:44;22.08;;;9.85;;
45326;SDS011;31062;49.678;24.560;2023-10-13T17:51:31;17.77;;;8.90;;
45326;SDS011;31062;49.678;24.560;2023-10-13T17:54:39;11.85;;;8.43;;
45326;SDS011;31062;49.678;24.560;2023-10-13T17:57:26;18.73;;;8.43;;